PADL/DLG METAR and TAF weather

Enter ICAO airport designator
Station Type Date Time Source
PADL METAR 2021/01/17 18:56 UTC NOAA

PADL 171856Z 03007KT 2 1/2SM -SN BR OVC012 M01/M01 A2934 RMK AO2 VIS 1 1/2V4 SLP939 P0001 T10061011


Station Type Date Time Source
PADL Decoded METAR 2021/01/17 18:56 UTC NOAA

Dillingham, Dillingham Airport, AK, United States (PADL) 59-03N 158-31W 29M
Jan 17, 2021 - 01:56 PM EST / 2021.01.17 1856 UTC
Wind: from the NNE (030 degrees) at 8 MPH (7 KT):0
Visibility: 2 1/2 mile(s):0
Sky conditions: overcast
Weather: light snow; mist
Precipitation last hour: 0.01 inches
Temperature: 30.9 F (-0.6 C)
Windchill: 23 F (-5 C):1
Dew Point: 30.0 F (-1.1 C)
Relative Humidity: 96%
Pressure (altimeter): 29.34 in. Hg (993 hPa)
ob: PADL 171856Z 03007KT 2 1/2SM -SN BR OVC012 M01/M01 A2934 RMK AO2 VIS 1 1/2V4 SLP939 P0001 T10061011
cycle: 19

Station Type Date Time Source
PADL TAF 2021/01/17 18:30 UTC NOAA

TAF PADL 171728Z 1718/1818 01009KT 3SM -SN BR OVC018
TEMPO 1718/1722 2SM -SN BR SCT007 OVC010
FM180300 15005KT 3SM -SN BR OVC009
FM180600 VRB05KT 3SM BR VCSH OVC007
FM181200 36012KT 2SM -SN BR OVC007

Example: see airport list